Hanjin Philadelphia — A8CN8 — position and weather

sailwx.info

Track history (hours):
 
Tides and Currents Weather Stations Pressure Air Temp Water Temp Dewpoint Dewpoint Depression Visibility Wind Speed Wind Dir Waves Ship Positions

Hanjin Philadelphia

Last reported at 2015-Dec-21 11:31 UTC. Time now 2016-Dec-03 15:46 UTC.
Position N 01°13' E 103°31'.
Warning: this ship's position is months out of date.

Length 282.1 m; beam 32.2 m; draft 13 m.

Type: Ship. MMSI: 636026894.

Date/timePositionNaut miles runAvg speedWind from/ knotsBaromVisibWave heightAir tempDewpointWater temp
2015-Dec-21 11:31N 01°13' E 103°31'1010.1
2015-Dec-21 10:33N 01°10' E 103°40'1010.2
2015-Dec-21 09:33N 01°11' E 103°50'1212.0
2015-Dec-21 08:33N 01°16' E 104°02'1211.5
2015-Dec-21 07:31N 01°17' E 104°13'2 0.0
2015-Dec-19 06:32N 01°16' E 104°12'8 8.2
2015-Dec-19 05:31N 01°15' E 104°03'8 8.2
2015-Dec-19 04:32N 01°13' E 103°55'8 8.0
2015-Dec-19 03:33N 01°10' E 103°49'9 8.6
2015-Dec-19 02:33N 01°04' E 103°42'11 7.6
2015-Dec-19 01:05N 01°08' E 103°32'6 9.8
2015-Dec-19 00:28N 01°14' E 103°30'0 0.2
2015-Dec-18 22:14N 01°15' E 103°29'0 0.0
2015-Dec-18 21:07N 01°15' E 103°29'0 0.0
2015-Dec-18 19:29N 01°15' E 103°29'0 0.1
2015-Dec-18 17:10N 01°15' E 103°29'0 0.0
2015-Dec-18 16:16N 01°15' E 103°29'0 0.0
2015-Dec-18 13:33N 01°15' E 103°29'0 0.0
2015-Dec-18 12:28N 01°15' E 103°29'0 0.0
2015-Dec-18 11:23N 01°15' E 103°29'0 0.3
2015-Dec-18 10:30N 01°14' E 103°29'7 7.1
2015-Dec-18 09:33N 01°14' E 103°36'3 3.3
2015-Dec-18 08:33N 01°12' E 103°38'8 8.2
2015-Dec-18 07:33N 01°10' E 103°46'8 8.2
2015-Dec-18 06:33N 01°13' E 103°54'1010.0
2015-Dec-18 05:34N 01°16' E 104°03'1111.0
2015-Dec-18 04:31N 01°17' E 104°15'  
Track history (hours):
 
Tides and Currents Weather Stations Pressure Air Temp Water Temp Dewpoint Dewpoint Depression Visibility Wind Speed Wind Dir Waves Ship Positions

Hanjin Philadelphia

Last reported at 2015-Dec-21 11:31 UTC. Time now 2016-Dec-03 15:46 UTC.
Position N 01°13' E 103°31'.
Warning: this ship's position is months out of date.

Length 282.1 m; beam 32.2 m; draft 13 m.

Type: Ship. MMSI: 636026894.

Date/timePositionNaut miles runAvg speedWind from/ knotsBaromVisibWave heightAir tempDewpointWater temp
2015-Dec-21 11:31N 01°13' E 103°31'1010.1
2015-Dec-21 10:33N 01°10' E 103°40'1010.2
2015-Dec-21 09:33N 01°11' E 103°50'1212.0
2015-Dec-21 08:33N 01°16' E 104°02'1211.5
2015-Dec-21 07:31N 01°17' E 104°13'2 0.0
2015-Dec-19 06:32N 01°16' E 104°12'8 8.2
2015-Dec-19 05:31N 01°15' E 104°03'8 8.2
2015-Dec-19 04:32N 01°13' E 103°55'8 8.0
2015-Dec-19 03:33N 01°10' E 103°49'9 8.6
2015-Dec-19 02:33N 01°04' E 103°42'11 7.6
2015-Dec-19 01:05N 01°08' E 103°32'6 9.8
2015-Dec-19 00:28N 01°14' E 103°30'0 0.2
2015-Dec-18 22:14N 01°15' E 103°29'0 0.0
2015-Dec-18 21:07N 01°15' E 103°29'0 0.0
2015-Dec-18 19:29N 01°15' E 103°29'0 0.1
2015-Dec-18 17:10N 01°15' E 103°29'0 0.0
2015-Dec-18 16:16N 01°15' E 103°29'0 0.0
2015-Dec-18 13:33N 01°15' E 103°29'0 0.0
2015-Dec-18 12:28N 01°15' E 103°29'0 0.0
2015-Dec-18 11:23N 01°15' E 103°29'0 0.3
2015-Dec-18 10:30N 01°14' E 103°29'7 7.1
2015-Dec-18 09:33N 01°14' E 103°36'3 3.3
2015-Dec-18 08:33N 01°12' E 103°38'8 8.2
2015-Dec-18 07:33N 01°10' E 103°46'8 8.2
2015-Dec-18 06:33N 01°13' E 103°54'1010.0
2015-Dec-18 05:34N 01°16' E 104°03'1111.0
2015-Dec-18 04:31N 01°17' E 104°15'  

Dump ship's entire track history